首页
METAR-TAF:

METAR-TAF

机场 :

Blue River, 不列颠哥伦比亚, 加拿大

纬度: 52-08N, 经度: 119-18W, 海拔: 679米

当前天气观测

该预报发布于1小时和7分钟前的19:00 UTC
静风
温度 1°C
湿度 100%
气压 1012 hPa
能見度: 6.4公里
少量云层高于200英尺
少量云层高于900英尺
多云层高于2000英尺
阴天层高于4000英尺
小雨, 轻雾

METAR: CYCP 171900Z 00000KT 4SM -RA BR FEW002 FEW009 BKN020 OVC040 01/01 A2989 RMK SF1SF1SC3SC3 VIS VLY S 2 SLP151

时间: 12:07 (20:07 UTC)


TAF: 丢失

超过4000个机场的气象观测和天气预报(METAR&TAF报告)。

可查询的气象台以黄色和红色小点在地图上表示。

将鼠标移到小点上方,可查看气象台名称。

然后点击查看天气观测和预报。

如需切换地图:点击带黑十字的绿色按钮放大地图;点击带横线的绿色按钮缩小地图;或者点击绿色箭头查看邻近地区的地图。


METAR-TAF: